Time;durP1;ratioP1;P1;durP2;ratioP2;P2;SDS_P1;SDS_P2;PMS_P1;PMS_P2;Temp;Humidity;BMP_temperature;BMP_pressure;BME280_temperature;BME280_humidity;BME280_pressure;Samples;Min_cycle;Max_cycle;Signal;HPM_P1;HPM_P2
2022/01/06 00:00:57;;;;;;;12.57;2.20;;;7.20;99.90;;;;;;5019432;28;20221;-26
2022/01/06 00:03:26;;;;;;;11.60;2.73;;;7.30;99.90;;;;;;5037557;28;20213;-26
2022/01/06 00:05:55;;;;;;;7.77;2.03;;;7.30;99.90;;;;;;5012052;28;20674;-26
2022/01/06 00:08:25;;;;;;;10.73;1.93;;;7.20;99.90;;;;;;5025129;28;20193;-26
2022/01/06 00:10:53;;;;;;;10.63;2.47;;;7.20;99.90;;;;;;5043633;28;20675;-26
2022/01/06 00:13:30;;;;;;;5.93;1.80;;;7.20;99.90;;;;;;5012901;28;20233;-25
2022/01/06 00:16:06;;;;;;;8.30;1.97;;;7.20;99.90;;;;;;5020370;28;20601;-26
2022/01/06 00:24:26;;;;;;;8.70;2.10;;;7.20;99.90;;;;;;5016117;28;20232;-26
2022/01/06 00:26:57;;;;;;;16.50;2.27;;;7.20;99.90;;;;;;4999695;28;20205;-25
2022/01/06 00:29:25;;;;;;;9.30;1.70;;;7.10;99.90;;;;;;5025886;28;20201;-26
2022/01/06 00:31:52;;;;;;;10.87;2.10;;;7.20;99.90;;;;;;5025040;28;20565;-23
2022/01/06 00:34:21;;;;;;;8.00;1.67;;;7.10;99.90;;;;;;5023653;28;20225;-23
2022/01/06 00:36:51;;;;;;;9.13;2.07;;;7.10;99.90;;;;;;5026972;28;20208;-23
2022/01/06 00:39:23;;;;;;;7.13;1.33;;;7.10;99.90;;;;;;5039833;28;20208;-23
2022/01/06 00:41:55;;;;;;;9.23;1.80;;;7.10;99.90;;;;;;5045438;28;20258;-23
2022/01/06 00:44:23;;;;;;;9.00;1.80;;;7.10;99.90;;;;;;5038556;28;20252;-23
2022/01/06 00:46:52;;;;;;;6.10;1.70;;;7.10;99.90;;;;;;5044528;28;20318;-23
2022/01/06 00:49:21;;;;;;;8.03;1.73;;;7.10;99.90;;;;;;5018420;28;20707;-24
2022/01/06 00:51:49;;;;;;;8.33;1.67;;;7.10;99.90;;;;;;5022331;28;20304;-23
2022/01/06 00:54:16;;;;;;;7.83;2.07;;;7.10;99.90;;;;;;5016561;28;20228;-23
2022/01/06 00:56:43;;;;;;;13.00;2.10;;;7.10;99.90;;;;;;5011072;28;20693;-23
2022/01/06 00:59:11;;;;;;;9.67;1.77;;;7.10;99.90;;;;;;5011236;28;20240;-23
2022/01/06 01:01:38;;;;;;;8.37;1.83;;;7.00;99.90;;;;;;5015350;28;20224;-23
2022/01/06 01:04:05;;;;;;;11.77;2.07;;;7.00;99.90;;;;;;5013972;28;20220;-23
2022/01/06 01:06:33;;;;;;;6.67;1.60;;;7.00;99.90;;;;;;5016914;28;20220;-23
2022/01/06 01:09:00;;;;;;;7.50;1.23;;;7.00;99.90;;;;;;5061041;28;20240;-23
2022/01/06 01:11:27;;;;;;;10.20;2.10;;;7.00;99.90;;;;;;5014863;28;20555;-23
2022/01/06 01:14:07;;;;;;;8.20;1.67;;;6.90;99.90;;;;;;5023588;28;20204;-23
2022/01/06 01:16:34;;;;;;;6.07;1.60;;;6.90;99.90;;;;;;5026021;28;20201;-23
2022/01/06 01:19:10;;;;;;;7.23;1.87;;;6.90;99.90;;;;;;5028484;28;20316;-23
2022/01/06 01:21:37;;;;;;;9.40;1.67;;;6.90;99.90;;;;;;5029403;28;20209;-23
2022/01/06 01:24:07;;;;;;;11.90;1.97;;;6.80;99.90;;;;;;5028437;28;20220;-23
2022/01/06 01:26:34;;;;;;;7.57;1.67;;;6.80;99.90;;;;;;5027768;28;20219;-23
2022/01/06 01:29:02;;;;;;;10.60;1.90;;;6.80;99.90;;;;;;5028073;28;20200;-23
2022/01/06 01:31:36;;;;;;;12.03;2.07;;;6.80;99.90;;;;;;5029059;28;20212;-24
2022/01/06 01:34:10;;;;;;;10.10;2.30;;;6.70;99.90;;;;;;5061470;28;20680;-23
2022/01/06 01:36:37;;;;;;;9.43;2.10;;;6.70;99.90;;;;;;5025136;28;20204;-23
2022/01/06 01:39:05;;;;;;;8.30;1.90;;;6.70;99.90;;;;;;5030168;28;20350;-23
2022/01/06 01:41:35;;;;;;;8.83;2.37;;;6.70;99.90;;;;;;5023750;28;20232;-23
2022/01/06 01:44:05;;;;;;;15.30;3.03;;;6.70;99.90;;;;;;5029201;28;20260;-24
2022/01/06 01:46:42;;;;;;;6.07;1.87;;;6.70;99.90;;;;;;5021025;28;20204;-23
2022/01/06 01:51:51;;;;;;;8.30;2.20;;;6.70;99.90;;;;;;5026491;28;20476;-23
2022/01/06 01:54:18;;;;;;;8.23;2.20;;;6.70;99.90;;;;;;5029496;28;20212;-23
2022/01/06 01:56:46;;;;;;;10.80;2.27;;;6.70;99.90;;;;;;5022656;28;20205;-23
2022/01/06 01:59:13;;;;;;;7.37;1.80;;;6.70;99.90;;;;;;5025586;28;20204;-23
2022/01/06 02:01:42;;;;;;;9.27;2.33;;;6.70;99.90;;;;;;5033563;28;20217;-23
2022/01/06 02:04:13;;;;;;;5.90;1.87;;;6.70;99.90;;;;;;5043136;28;20241;-23
2022/01/06 02:06:40;;;;;;;10.43;2.07;;;6.70;99.90;;;;;;5035307;28;20207;-23
2022/01/06 02:09:07;;;;;;;9.60;2.43;;;6.70;99.90;;;;;;5031386;28;20613;-23
2022/01/06 02:11:34;;;;;;;9.60;2.40;;;6.70;99.90;;;;;;5032405;28;20216;-23
2022/01/06 02:14:06;;;;;;;9.40;2.37;;;6.70;99.90;;;;;;5038744;28;20216;-23
2022/01/06 02:16:33;;;;;;;9.53;2.50;;;6.70;99.90;;;;;;5030922;28;20273;-23
2022/01/06 02:19:00;;;;;;;8.70;2.13;;;6.70;99.90;;;;;;5033684;28;20212;-23
2022/01/06 02:21:28;;;;;;;7.40;2.23;;;6.70;99.90;;;;;;5027945;28;20212;-23
2022/01/06 02:23:55;;;;;;;11.13;2.03;;;6.70;99.90;;;;;;5022600;28;20599;-24
2022/01/06 02:26:27;;;;;;;7.50;2.27;;;6.70;99.90;;;;;;5020421;28;20683;-23
2022/01/06 02:28:54;;;;;;;10.27;2.20;;;6.70;99.90;;;;;;5025494;28;20224;-23
2022/01/06 02:31:21;;;;;;;11.53;2.40;;;6.60;99.90;;;;;;5017663;28;20200;-23
2022/01/06 02:33:49;;;;;;;11.07;2.20;;;6.70;99.90;;;;;;5023314;28;20209;-23
2022/01/06 02:36:16;;;;;;;10.70;2.33;;;6.70;99.90;;;;;;5019582;28;20555;-23
2022/01/06 02:38:43;;;;;;;8.00;1.93;;;6.70;99.90;;;;;;5012752;28;20205;-23
2022/01/06 02:41:12;;;;;;;10.57;2.33;;;6.70;99.90;;;;;;5010631;28;20201;-23
2022/01/06 02:43:39;;;;;;;13.37;2.40;;;6.70;99.90;;;;;;5012120;28;20221;-23
2022/01/06 02:46:09;;;;;;;13.07;2.30;;;6.70;99.90;;;;;;5009288;28;20214;-23
2022/01/06 02:48:39;;;;;;;15.33;3.43;;;6.70;99.90;;;;;;5009364;28;20193;-23
2022/01/06 02:51:06;;;;;;;11.57;2.60;;;6.70;99.90;;;;;;5024399;28;20260;-23
2022/01/06 02:53:33;;;;;;;11.10;3.40;;;6.70;99.90;;;;;;5008368;28;20210;-24
2022/01/06 02:56:00;;;;;;;12.50;3.60;;;6.60;99.90;;;;;;5012300;28;20213;-23
2022/01/06 02:58:43;;;;;;;14.37;4.23;;;6.60;99.90;;;;;;5008909;28;20679;-23
2022/01/06 03:01:10;;;;;;;15.50;3.87;;;6.70;99.90;;;;;;5023480;28;20207;-23
2022/01/06 03:03:40;;;;;;;12.37;4.40;;;6.70;99.90;;;;;;5028258;28;20315;-23
2022/01/06 03:06:07;;;;;;;14.93;4.90;;;6.70;99.90;;;;;;5021766;28;20242;-23
2022/01/06 03:08:37;;;;;;;13.70;4.27;;;6.60;99.90;;;;;;5037798;28;20651;-23
2022/01/06 03:11:07;;;;;;;11.63;4.43;;;6.60;99.90;;;;;;5024926;28;20272;-23
2022/01/06 03:13:35;;;;;;;15.33;5.30;;;6.60;99.90;;;;;;5026596;28;20208;-23
2022/01/06 03:16:02;;;;;;;11.73;4.63;;;6.70;99.90;;;;;;5023151;28;20580;-23
2022/01/06 03:18:30;;;;;;;12.50;4.00;;;6.70;99.90;;;;;;5027375;28;20247;-23
2022/01/06 03:20:57;;;;;;;12.73;4.27;;;6.70;99.90;;;;;;5033020;28;20204;-23
2022/01/06 03:23:27;;;;;;;12.27;4.47;;;6.70;99.90;;;;;;5025388;28;20284;-23
2022/01/06 03:25:54;;;;;;;12.10;3.73;;;6.70;99.90;;;;;;5025561;28;20217;-23
2022/01/06 03:28:21;;;;;;;10.47;3.47;;;6.70;99.90;;;;;;5025096;28;20205;-23
2022/01/06 03:30:51;;;;;;;16.90;3.70;;;6.70;99.90;;;;;;5031481;28;20205;-23
2022/01/06 03:33:19;;;;;;;17.23;4.00;;;6.70;99.90;;;;;;5025202;28;20216;-23
2022/01/06 03:35:46;;;;;;;13.17;3.50;;;6.70;99.90;;;;;;5046717;28;20200;-23
2022/01/06 03:38:13;;;;;;;10.23;3.00;;;6.60;99.90;;;;;;5045719;28;20327;-23
2022/01/06 03:40:43;;;;;;;12.03;2.97;;;6.70;99.90;;;;;;5034700;28;20624;-23
2022/01/06 03:43:10;;;;;;;11.80;3.67;;;6.60;99.90;;;;;;5033916;28;20717;-23
2022/01/06 03:45:40;;;;;;;8.57;2.60;;;6.70;99.90;;;;;;5044462;28;20230;-23
2022/01/06 03:48:10;;;;;;;9.90;2.87;;;6.70;99.90;;;;;;5046785;28;20629;-26
2022/01/06 03:50:37;;;;;;;12.80;3.50;;;6.60;99.90;;;;;;5040576;28;20597;-26
2022/01/06 03:53:06;;;;;;;11.63;2.90;;;6.60;99.90;;;;;;5033991;28;20195;-26
2022/01/06 03:55:34;;;;;;;12.47;2.70;;;6.60;99.90;;;;;;5025678;28;20903;-25
2022/01/06 03:58:01;;;;;;;10.97;2.10;;;6.60;99.90;;;;;;5024062;28;20292;-25
2022/01/06 04:00:31;;;;;;;13.70;3.70;;;6.70;99.90;;;;;;5008165;28;20304;-26
2022/01/06 04:02:58;;;;;;;11.80;2.53;;;6.70;99.90;;;;;;5008793;28;20260;-25
2022/01/06 04:10:06;;;;;;;11.80;2.13;;;6.60;99.90;;;;;;5013576;28;20676;-26
2022/01/06 04:12:37;;;;;;;9.57;2.00;;;6.60;99.90;;;;;;5037254;28;20220;-26
2022/01/06 04:15:10;;;;;;;8.07;1.90;;;6.60;99.90;;;;;;5035667;28;20316;-26
2022/01/06 04:17:38;;;;;;;10.50;2.10;;;6.60;99.90;;;;;;5045787;28;20587;-26
2022/01/06 04:20:07;;;;;;;9.60;2.20;;;6.60;99.90;;;;;;5041618;28;20205;-23
2022/01/06 04:22:35;;;;;;;10.40;2.37;;;6.60;99.90;;;;;;5025727;28;20718;-23
2022/01/06 04:25:04;;;;;;;9.13;2.00;;;6.60;99.90;;;;;;5032073;28;20213;-23
2022/01/06 04:27:32;;;;;;;13.93;2.33;;;6.60;99.90;;;;;;5025562;28;20197;-23
2022/01/06 04:30:02;;;;;;;16.47;2.73;;;6.60;99.90;;;;;;5030088;28;20219;-23
2022/01/06 04:32:29;;;;;;;11.07;2.30;;;6.60;99.90;;;;;;5027121;28;20209;-23
2022/01/06 04:34:58;;;;;;;11.27;2.53;;;6.60;99.90;;;;;;5046977;28;20581;-23
2022/01/06 04:37:27;;;;;;;9.57;2.77;;;6.60;99.90;;;;;;5018502;28;20204;-23
2022/01/06 04:39:56;;;;;;;9.50;2.67;;;6.60;99.90;;;;;;5028253;28;20930;-23
2022/01/06 04:42:26;;;;;;;9.00;2.67;;;6.60;99.90;;;;;;5023714;28;20215;-23
2022/01/06 04:44:54;;;;;;;13.50;3.20;;;6.60;99.90;;;;;;5029841;28;20232;-24
2022/01/06 04:47:21;;;;;;;12.43;3.07;;;6.60;99.90;;;;;;5022222;28;20220;-23
2022/01/06 04:49:50;;;;;;;14.53;3.60;;;6.60;99.90;;;;;;5028508;28;20240;-24
2022/01/06 04:52:18;;;;;;;10.90;3.20;;;6.60;99.90;;;;;;5022726;28;20254;-23
2022/01/06 04:54:47;;;;;;;7.83;3.70;;;6.60;99.90;;;;;;5027244;28;20211;-24
2022/01/06 04:57:15;;;;;;;12.33;3.43;;;6.60;99.90;;;;;;5029048;28;20247;-23
2022/01/06 04:59:43;;;;;;;9.63;3.70;;;6.60;99.90;;;;;;5033519;28;20217;-24
2022/01/06 05:02:13;;;;;;;11.70;3.80;;;6.60;99.90;;;;;;5028295;28;20232;-24
2022/01/06 05:04:43;;;;;;;10.13;4.00;;;6.60;99.90;;;;;;5031420;28;20209;-23
2022/01/06 05:07:13;;;;;;;14.43;3.70;;;6.60;99.90;;;;;;5029052;28;20194;-23
2022/01/06 05:09:42;;;;;;;9.53;3.70;;;6.60;99.90;;;;;;5036607;28;20239;-24
2022/01/06 05:12:09;;;;;;;13.87;3.80;;;6.60;99.90;;;;;;5035228;28;20335;-24
2022/01/06 05:14:37;;;;;;;10.67;3.67;;;6.60;99.90;;;;;;5035306;28;20196;-23
2022/01/06 05:17:05;;;;;;;15.20;3.60;;;6.60;99.90;;;;;;5041858;28;20232;-23
2022/01/06 05:19:34;;;;;;;9.13;3.63;;;6.60;99.90;;;;;;5038269;28;20576;-23
2022/01/06 05:22:02;;;;;;;14.00;3.63;;;6.60;99.90;;;;;;5047864;28;20253;-23
2022/01/06 05:24:30;;;;;;;13.37;3.43;;;6.60;99.90;;;;;;5041862;28;20216;-23
2022/01/06 05:26:57;;;;;;;13.43;3.50;;;6.60;99.90;;;;;;5038253;28;20209;-23
2022/01/06 05:29:25;;;;;;;17.80;4.17;;;6.60;99.90;;;;;;5016310;28;20676;-23
2022/01/06 05:31:52;;;;;;;12.73;3.77;;;6.60;99.90;;;;;;5026112;28;20683;-23
2022/01/06 05:34:21;;;;;;;11.43;3.90;;;6.60;99.90;;;;;;5022625;28;20201;-23
2022/01/06 05:36:49;;;;;;;16.63;3.50;;;6.60;99.90;;;;;;5027781;28;20239;-23
2022/01/06 05:39:16;;;;;;;10.37;2.93;;;6.50;99.90;;;;;;5034907;28;20698;-23
2022/01/06 05:41:45;;;;;;;10.27;3.73;;;6.60;99.90;;;;;;5028102;28;20232;-23
2022/01/06 05:44:12;;;;;;;12.10;3.67;;;6.60;99.90;;;;;;5029650;28;20220;-23
2022/01/06 05:46:39;;;;;;;12.17;3.57;;;6.60;99.90;;;;;;5029319;28;20242;-23
2022/01/06 05:49:07;;;;;;;14.60;3.90;;;6.50;99.90;;;;;;5029817;28;20232;-24
2022/01/06 05:51:36;;;;;;;14.00;4.20;;;6.50;99.90;;;;;;5024337;28;20221;-23
2022/01/06 05:54:03;;;;;;;14.27;3.63;;;6.50;99.90;;;;;;5037810;28;20755;-23
2022/01/06 05:56:31;;;;;;;14.90;4.77;;;6.50;99.90;;;;;;5041870;28;20609;-23
2022/01/06 05:59:01;;;;;;;16.23;4.40;;;6.50;99.90;;;;;;5028882;28;20208;-23
2022/01/06 06:01:29;;;;;;;10.87;3.60;;;6.40;99.90;;;;;;5034501;28;20327;-23
2022/01/06 06:03:56;;;;;;;13.53;3.80;;;6.40;99.90;;;;;;5049299;28;20198;-23
2022/01/06 06:06:24;;;;;;;12.77;4.33;;;6.40;99.90;;;;;;5031307;28;20225;-24
2022/01/06 06:08:55;;;;;;;12.33;4.77;;;6.40;99.90;;;;;;5027486;28;20217;-23
2022/01/06 06:11:22;;;;;;;11.53;4.17;;;6.30;99.90;;;;;;5060391;28;20209;-24
2022/01/06 06:13:49;;;;;;;10.70;4.20;;;6.30;99.90;;;;;;5029001;28;20198;-24
2022/01/06 06:16:20;;;;;;;16.40;4.50;;;6.20;99.90;;;;;;5012421;28;20208;-26
2022/01/06 06:18:47;;;;;;;17.63;4.30;;;6.20;99.90;;;;;;5025145;28;20311;-26
2022/01/06 06:21:14;;;;;;;11.70;4.83;;;6.20;99.90;;;;;;5018434;28;20211;-26
2022/01/06 06:23:42;;;;;;;11.47;4.60;;;6.10;99.90;;;;;;5026842;28;20209;-26
2022/01/06 06:26:09;;;;;;;14.00;4.57;;;6.10;99.90;;;;;;5026179;28;20224;-26
2022/01/06 06:28:39;;;;;;;13.67;4.70;;;6.00;99.90;;;;;;5060566;28;20209;-25
2022/01/06 06:31:06;;;;;;;13.07;4.50;;;6.00;99.90;;;;;;5028304;28;20247;-25
2022/01/06 06:33:36;;;;;;;13.47;4.20;;;6.00;99.90;;;;;;5029004;28;20742;-25
2022/01/06 06:36:03;;;;;;;14.10;4.87;;;6.00;99.90;;;;;;5028601;28;20228;-25
2022/01/06 06:38:30;;;;;;;16.03;4.90;;;5.90;99.90;;;;;;5027197;28;20272;-26
2022/01/06 06:40:57;;;;;;;13.63;4.20;;;5.90;99.90;;;;;;5022936;28;20259;-25
2022/01/06 06:43:24;;;;;;;15.17;4.73;;;5.90;99.90;;;;;;5029139;28;20213;-26
2022/01/06 06:45:54;;;;;;;13.93;4.63;;;5.80;99.90;;;;;;5028083;28;20227;-25
2022/01/06 06:48:25;;;;;;;13.30;5.57;;;5.80;99.90;;;;;;5029031;28;20697;-25
2022/01/06 06:50:52;;;;;;;12.57;4.90;;;5.80;99.90;;;;;;5026172;28;20275;-26
2022/01/06 06:53:19;;;;;;;15.23;5.30;;;5.80;99.90;;;;;;5027507;28;20193;-26
2022/01/06 06:55:47;;;;;;;11.37;5.37;;;5.70;99.90;;;;;;5028621;28;20208;-26
2022/01/06 06:58:14;;;;;;;13.70;5.33;;;5.70;99.90;;;;;;5026883;28;20263;-25
2022/01/06 07:00:41;;;;;;;17.63;5.10;;;5.70;99.90;;;;;;5019016;28;20245;-26
2022/01/06 07:03:10;;;;;;;13.80;5.23;;;5.60;99.90;;;;;;5009585;28;20324;-26
2022/01/06 07:05:37;;;;;;;11.47;4.73;;;5.60;99.90;;;;;;5015132;28;20219;-26
2022/01/06 07:08:04;;;;;;;16.80;4.77;;;5.60;99.90;;;;;;5025052;28;20197;-26
2022/01/06 07:10:34;;;;;;;12.60;4.73;;;5.60;99.90;;;;;;5008463;28;20232;-25
2022/01/06 07:13:01;;;;;;;13.13;4.67;;;5.50;99.90;;;;;;5043776;28;20587;-25
2022/01/06 07:15:33;;;;;;;16.90;4.80;;;5.50;99.90;;;;;;5058675;28;20674;-25
2022/01/06 07:18:03;;;;;;;17.37;5.10;;;5.50;99.90;;;;;;5028819;28;20223;-26
2022/01/06 07:20:30;;;;;;;11.60;4.37;;;5.40;99.90;;;;;;5028903;28;20207;-25
2022/01/06 07:23:02;;;;;;;11.60;4.20;;;5.40;99.90;;;;;;5027197;28;20209;-25
2022/01/06 07:25:29;;;;;;;14.83;5.27;;;5.40;99.90;;;;;;5027755;28;20217;-26
2022/01/06 07:27:57;;;;;;;15.63;4.90;;;5.30;99.90;;;;;;5027299;28;20395;-25
2022/01/06 07:30:24;;;;;;;12.83;5.23;;;5.30;99.90;;;;;;5026851;28;20197;-26
2022/01/06 07:32:52;;;;;;;14.47;5.00;;;5.30;99.90;;;;;;5026824;28;20272;-25
2022/01/06 07:35:21;;;;;;;12.13;4.37;;;5.30;99.90;;;;;;5026778;28;20224;-25
2022/01/06 07:37:51;;;;;;;15.43;4.80;;;5.30;99.90;;;;;;5020469;28;20285;-25
2022/01/06 07:40:19;;;;;;;13.43;4.37;;;5.30;99.90;;;;;;5008322;28;20209;-26
2022/01/06 07:42:50;;;;;;;12.33;4.37;;;5.20;99.90;;;;;;5021399;28;20227;-25
2022/01/06 07:45:20;;;;;;;12.53;4.30;;;5.20;99.90;;;;;;5025990;28;20267;-25
2022/01/06 07:47:59;;;;;;;20.27;4.43;;;5.20;99.90;;;;;;5027731;28;20224;-26
2022/01/06 07:50:32;;;;;;;20.80;4.87;;;5.20;99.90;;;;;;5015859;28;20238;-26
2022/01/06 07:52:59;;;;;;;12.83;4.20;;;5.10;99.90;;;;;;5058521;28;20201;-26
2022/01/06 07:55:27;;;;;;;15.53;3.90;;;5.10;99.90;;;;;;5026714;28;20307;-26
2022/01/06 07:57:57;;;;;;;16.40;4.87;;;5.10;99.90;;;;;;5027713;28;20204;-25
2022/01/06 08:00:25;;;;;;;15.17;4.80;;;5.10;99.90;;;;;;5007496;28;20233;-26
2022/01/06 08:02:52;;;;;;;17.17;4.30;;;5.10;99.90;;;;;;5021327;28;20212;-26
2022/01/06 08:05:25;;;;;;;17.63;4.73;;;5.10;99.90;;;;;;5031229;28;20205;-25
2022/01/06 08:07:53;;;;;;;13.43;4.80;;;5.10;99.90;;;;;;5030928;28;20574;-26
2022/01/06 08:10:21;;;;;;;13.70;5.10;;;5.10;99.90;;;;;;5030497;28;20231;-25
2022/01/06 08:12:49;;;;;;;14.87;4.43;;;5.10;99.90;;;;;;5031552;28;20197;-26
2022/01/06 08:15:16;;;;;;;13.37;4.57;;;5.10;99.90;;;;;;5030765;28;20207;-25
2022/01/06 08:17:43;;;;;;;12.30;4.73;;;5.10;99.90;;;;;;5029974;28;20201;-25
2022/01/06 08:20:15;;;;;;;12.33;4.33;;;5.10;99.90;;;;;;5047741;28;20286;-25
2022/01/06 08:22:43;;;;;;;12.67;4.90;;;5.10;99.90;;;;;;5030889;28;20197;-25
2022/01/06 08:25:11;;;;;;;13.03;5.27;;;5.10;99.90;;;;;;5011596;28;20320;-26
2022/01/06 08:27:38;;;;;;;13.77;4.43;;;5.10;99.90;;;;;;5019802;28;20205;-26
2022/01/06 08:30:07;;;;;;;14.57;4.60;;;5.10;99.90;;;;;;5029703;28;20219;-25
2022/01/06 08:32:35;;;;;;;13.17;5.23;;;5.10;99.90;;;;;;5030760;28;20280;-26
2022/01/06 08:35:06;;;;;;;14.87;4.63;;;5.10;99.90;;;;;;5031127;28;20205;-26
2022/01/06 08:37:38;;;;;;;16.80;5.33;;;5.20;99.90;;;;;;5044606;28;20217;-25
2022/01/06 08:40:09;;;;;;;15.57;4.80;;;5.20;99.90;;;;;;5030724;28;20259;-26
2022/01/06 08:42:38;;;;;;;17.23;4.67;;;5.20;99.90;;;;;;5027011;28;20193;-26
2022/01/06 08:45:07;;;;;;;17.63;5.47;;;5.20;99.90;;;;;;5030116;28;20213;-26
2022/01/06 08:47:35;;;;;;;14.10;4.60;;;5.20;99.90;;;;;;5030469;28;20228;-26
2022/01/06 08:50:06;;;;;;;12.93;4.80;;;5.20;99.90;;;;;;5029548;28;20241;-25
2022/01/06 08:52:38;;;;;;;15.03;5.33;;;5.20;99.90;;;;;;5030679;28;20209;-26
2022/01/06 08:55:09;;;;;;;14.23;4.67;;;5.20;99.90;;;;;;5029185;28;20209;-25
2022/01/06 08:57:36;;;;;;;11.80;4.90;;;5.20;99.90;;;;;;5029749;28;20295;-26
2022/01/06 09:00:06;;;;;;;20.43;5.77;;;5.30;99.90;;;;;;5028152;28;20585;-26
2022/01/06 09:02:33;;;;;;;15.17;5.20;;;5.20;99.90;;;;;;5029415;28;20706;-26
2022/01/06 09:05:02;;;;;;;17.90;4.97;;;5.30;99.90;;;;;;5027083;28;20209;-25
2022/01/06 09:07:30;;;;;;;15.63;5.00;;;5.30;99.90;;;;;;5025720;28;20206;-25
2022/01/06 09:09:59;;;;;;;15.43;5.20;;;5.30;99.90;;;;;;5026555;28;20675;-25
2022/01/06 09:12:27;;;;;;;14.33;5.40;;;5.30;99.90;;;;;;5029260;28;20299;-25
2022/01/06 09:14:55;;;;;;;15.63;5.60;;;5.40;99.90;;;;;;5028939;28;20208;-25
2022/01/06 09:17:25;;;;;;;18.10;5.90;;;5.40;99.90;;;;;;5027099;28;20212;-25
2022/01/06 09:19:54;;;;;;;13.47;5.23;;;5.40;99.90;;;;;;5029763;28;20211;-25
2022/01/06 09:22:24;;;;;;;15.90;5.23;;;5.50;99.90;;;;;;5023583;28;20340;-25
2022/01/06 09:24:52;;;;;;;13.27;5.63;;;5.50;99.90;;;;;;5025483;28;20201;-25
2022/01/06 09:27:19;;;;;;;15.17;5.30;;;5.50;99.90;;;;;;5029743;28;20224;-26
2022/01/06 09:29:56;;;;;;;17.63;5.57;;;5.60;99.90;;;;;;5026057;28;20699;-25
2022/01/06 09:32:26;;;;;;;15.57;5.20;;;5.60;99.90;;;;;;5041019;28;20222;-25
2022/01/06 09:34:54;;;;;;;16.50;5.67;;;5.60;99.90;;;;;;5029995;28;20208;-25
2022/01/06 09:37:21;;;;;;;21.50;6.63;;;5.60;99.90;;;;;;5025594;28;20397;-25
2022/01/06 09:39:50;;;;;;;12.37;5.20;;;5.70;99.90;;;;;;5033854;28;20303;-26
2022/01/06 09:42:19;;;;;;;16.30;5.87;;;5.70;99.90;;;;;;5029956;28;20251;-26
2022/01/06 09:44:48;;;;;;;15.80;5.93;;;5.70;99.90;;;;;;5029286;28;20620;-25
2022/01/06 09:47:18;;;;;;;15.70;5.13;;;5.70;99.90;;;;;;5029201;28;20244;-25
2022/01/06 09:50:08;;;;;;;15.00;5.47;;;5.80;99.90;;;;;;5033546;28;20683;-26
2022/01/06 09:52:38;;;;;;;15.17;5.13;;;5.80;99.90;;;;;;5046776;28;20203;-25
2022/01/06 09:55:06;;;;;;;15.07;5.53;;;5.80;99.90;;;;;;5049166;28;20208;-26
2022/01/06 09:57:34;;;;;;;17.13;5.33;;;5.80;99.90;;;;;;5048325;28;20204;-26
2022/01/06 10:00:08;;;;;;;17.40;5.13;;;5.80;99.90;;;;;;5028156;28;20208;-25
2022/01/06 10:02:40;;;;;;;13.80;5.90;;;5.90;99.90;;;;;;5029493;28;20642;-26
2022/01/06 10:05:10;;;;;;;16.77;5.47;;;5.90;99.90;;;;;;5036680;28;20209;-25
2022/01/06 10:07:40;;;;;;;13.20;5.60;;;6.00;99.90;;;;;;5021637;28;20286;-25
2022/01/06 10:10:10;;;;;;;15.63;6.23;;;6.00;99.90;;;;;;5012351;28;20275;-25
2022/01/06 10:12:42;;;;;;;17.57;5.40;;;6.00;99.90;;;;;;5018224;28;20211;-26
2022/01/06 10:15:21;;;;;;;15.17;5.37;;;6.00;99.90;;;;;;5026487;28;20197;-25
2022/01/06 10:17:49;;;;;;;12.77;5.07;;;6.10;99.90;;;;;;5017898;28;20204;-25
2022/01/06 10:20:21;;;;;;;14.10;5.17;;;6.10;99.90;;;;;;5028663;28;20715;-25
2022/01/06 10:22:52;;;;;;;14.53;5.27;;;6.20;99.90;;;;;;5028986;28;20239;-25
2022/01/06 10:25:22;;;;;;;13.90;4.90;;;6.20;99.90;;;;;;5015179;28;20202;-25
2022/01/06 10:27:52;;;;;;;16.77;6.93;;;6.20;99.90;;;;;;5034829;28;20216;-25
2022/01/06 10:30:19;;;;;;;12.77;5.43;;;6.30;99.90;;;;;;5042380;28;20239;-25
2022/01/06 10:32:49;;;;;;;14.17;5.30;;;6.30;99.90;;;;;;5028685;28;20204;-25
2022/01/06 10:35:22;;;;;;;10.83;4.90;;;6.30;99.90;;;;;;5039279;28;20211;-23
2022/01/06 10:37:49;;;;;;;14.70;5.07;;;6.40;99.90;;;;;;5029943;28;20217;-23
2022/01/06 10:40:25;;;;;;;14.17;5.20;;;6.40;99.90;;;;;;5026489;28;20328;-23
2022/01/06 10:42:55;;;;;;;13.13;4.90;;;6.40;99.90;;;;;;5024048;28;20254;-23
2022/01/06 10:45:25;;;;;;;11.83;4.77;;;6.50;99.90;;;;;;5019963;28;20577;-23
2022/01/06 10:47:55;;;;;;;11.77;5.33;;;6.50;99.90;;;;;;5025329;28;20203;-23
2022/01/06 10:50:30;;;;;;;16.20;6.57;;;6.50;99.90;;;;;;5026322;28;20232;-23
2022/01/06 10:53:06;;;;;;;17.20;5.70;;;6.50;99.90;;;;;;5027706;28;20202;-23
2022/01/06 10:55:36;;;;;;;15.20;5.43;;;6.60;99.90;;;;;;5023832;28;20583;-23
2022/01/06 10:58:18;;;;;;;12.63;4.80;;;6.60;99.90;;;;;;5039107;28;20197;-23
2022/01/06 11:00:57;;;;;;;12.87;4.80;;;6.60;99.90;;;;;;5038401;28;20211;-24
2022/01/06 11:03:36;;;;;;;16.43;5.73;;;6.60;99.90;;;;;;5039142;28;20216;-23
2022/01/06 11:06:06;;;;;;;18.60;6.27;;;6.70;99.90;;;;;;5034087;28;20228;-23
2022/01/06 11:08:39;;;;;;;16.03;5.97;;;6.70;99.90;;;;;;5025651;28;20288;-23
2022/01/06 11:13:49;;;;;;;15.77;5.43;;;6.70;99.90;;;;;;5024906;28;20185;-23
2022/01/06 11:16:19;;;;;;;16.10;5.67;;;6.80;99.90;;;;;;5022846;28;20274;-23
2022/01/06 11:18:57;;;;;;;12.43;5.97;;;6.80;99.90;;;;;;5025470;28;20204;-23
2022/01/06 11:21:39;;;;;;;14.83;5.70;;;6.90;99.90;;;;;;5021489;28;20222;-23
2022/01/06 11:24:16;;;;;;;15.67;5.83;;;6.90;99.90;;;;;;5018568;28;20205;-23
2022/01/06 11:27:03;;;;;;;13.20;5.80;;;7.00;99.90;;;;;;5022014;28;20239;-23
2022/01/06 11:29:37;;;;;;;17.37;5.93;;;7.00;99.90;;;;;;5026551;28;20692;-23
2022/01/06 11:32:20;;;;;;;18.83;6.67;;;7.10;99.90;;;;;;5025367;28;20212;-23
2022/01/06 11:34:51;;;;;;;15.50;6.43;;;7.10;99.90;;;;;;5027200;28;20393;-23
2022/01/06 11:37:20;;;;;;;14.57;5.70;;;7.20;99.90;;;;;;5027225;28;20216;-23
2022/01/06 11:39:48;;;;;;;14.77;5.73;;;7.20;99.90;;;;;;5026464;28;20232;-23
2022/01/06 11:42:25;;;;;;;17.33;5.77;;;7.30;99.90;;;;;;5026729;28;20224;-23
2022/01/06 11:44:56;;;;;;;17.07;6.40;;;7.30;99.90;;;;;;5019837;28;20250;-23
2022/01/06 11:47:37;;;;;;;15.77;5.70;;;7.40;99.90;;;;;;5022082;28;20228;-23
2022/01/06 11:50:12;;;;;;;15.33;5.53;;;7.40;99.90;;;;;;5017822;28;20252;-23
2022/01/06 11:52:52;;;;;;;15.40;6.70;;;7.40;99.90;;;;;;5031715;28;20294;-23
2022/01/06 11:55:24;;;;;;;18.87;7.00;;;7.50;99.90;;;;;;5036574;28;20738;-23
2022/01/06 11:57:51;;;;;;;16.97;6.20;;;7.50;99.90;;;;;;5019438;28;20603;-23
2022/01/06 12:00:24;;;;;;;20.30;6.03;;;7.60;99.90;;;;;;5022913;28;20224;-23
2022/01/06 12:03:03;;;;;;;16.07;6.27;;;7.60;99.90;;;;;;5019993;28;20216;-23
2022/01/06 12:05:48;;;;;;;13.47;4.67;;;7.60;99.90;;;;;;5024015;28;21128;-23
2022/01/06 12:08:17;;;;;;;14.37;5.10;;;7.70;99.90;;;;;;5023733;28;20200;-23
2022/01/06 12:10:47;;;;;;;15.93;4.60;;;7.70;99.90;;;;;;5027963;28;20205;-23
2022/01/06 12:13:15;;;;;;;16.67;4.73;;;7.70;99.90;;;;;;5032378;28;20271;-23
2022/01/06 12:15:54;;;;;;;14.73;4.67;;;7.80;99.90;;;;;;5027123;28;20208;-23
2022/01/06 12:18:28;;;;;;;15.17;4.33;;;7.80;99.90;;;;;;5026213;28;20679;-23
2022/01/06 12:20:57;;;;;;;14.00;4.13;;;7.80;99.90;;;;;;5040141;28;20201;-23
2022/01/06 12:23:25;;;;;;;13.53;4.77;;;7.80;99.90;;;;;;5029644;28;20240;-23
2022/01/06 12:26:00;;;;;;;13.60;4.43;;;7.80;99.90;;;;;;5029187;28;20319;-23
2022/01/06 12:28:28;;;;;;;10.57;4.13;;;7.80;99.90;;;;;;5026224;28;20240;-23
2022/01/06 12:31:04;;;;;;;11.83;3.87;;;7.80;99.90;;;;;;5026038;28;20209;-23
2022/01/06 12:33:41;;;;;;;12.37;3.93;;;7.80;99.90;;;;;;5041405;28;20203;-23
2022/01/06 12:36:13;;;;;;;16.90;3.80;;;7.90;99.90;;;;;;5023636;28;20201;-23
2022/01/06 12:38:42;;;;;;;16.47;4.30;;;7.90;99.90;;;;;;5025461;28;20752;-23
2022/01/06 12:41:12;;;;;;;14.13;3.73;;;7.90;99.90;;;;;;5025164;28;20221;-23
2022/01/06 12:43:40;;;;;;;12.03;3.63;;;7.90;99.90;;;;;;5025144;28;20557;-23
2022/01/06 12:46:17;;;;;;;15.27;3.57;;;7.90;99.90;;;;;;5025068;28;20296;-23
2022/01/06 12:48:47;;;;;;;16.47;3.70;;;8.00;99.90;;;;;;5024534;28;20239;-23
2022/01/06 12:51:20;;;;;;;11.93;3.73;;;8.00;99.90;;;;;;5029389;28;20723;-23
2022/01/06 12:53:58;;;;;;;11.03;3.80;;;8.00;99.90;;;;;;5025694;28;20196;-23
2022/01/06 12:56:35;;;;;;;10.73;3.57;;;8.00;99.90;;;;;;5027823;28;20208;-23
2022/01/06 12:59:13;;;;;;;16.00;5.67;;;8.00;99.90;;;;;;5026090;28;20227;-23
2022/01/06 13:01:43;;;;;;;20.40;6.00;;;8.00;99.90;;;;;;5026337;28;20197;-23
2022/01/06 13:04:12;;;;;;;17.00;5.70;;;8.00;99.90;;;;;;5020381;28;20287;-23
2022/01/06 13:06:42;;;;;;;18.30;6.67;;;8.00;99.90;;;;;;5024278;28;20232;-23
2022/01/06 13:09:18;;;;;;;17.43;6.53;;;8.00;99.90;;;;;;5026383;28;20318;-23
2022/01/06 13:11:52;;;;;;;19.03;6.70;;;8.10;99.90;;;;;;5023829;28;20229;-23
2022/01/06 13:14:35;;;;;;;21.23;6.30;;;8.10;99.90;;;;;;5026259;28;20267;-23
2022/01/06 13:17:14;;;;;;;22.03;8.37;;;8.10;99.90;;;;;;5026507;28;20310;-23